createdAt,value
2019-02-12T00:00:07.776Z,19.50
2019-02-12T00:02:36.307Z,9.80
2019-02-12T00:05:05.708Z,10.30
2019-02-12T00:07:34.296Z,18.40
2019-02-12T00:10:03.188Z,18.43
2019-02-12T00:12:31.775Z,12.50
2019-02-12T00:15:00.414Z,12.90
2019-02-12T00:17:28.991Z,15.87
2019-02-12T00:20:00.258Z,12.27
2019-02-12T00:22:28.978Z,15.60
2019-02-12T00:24:57.677Z,14.50
2019-02-12T00:27:27.475Z,15.40
2019-02-12T00:29:56.040Z,16.80
2019-02-12T00:32:24.754Z,16.57
2019-02-12T00:34:53.308Z,11.60
2019-02-12T00:37:22.005Z,13.33
2019-02-12T00:39:50.545Z,16.53
2019-02-12T00:42:19.181Z,11.87
2019-02-12T00:44:47.695Z,13.67
2019-02-12T00:47:16.390Z,15.03
2019-02-12T00:49:45.014Z,18.60
2019-02-12T00:52:14.524Z,13.43
2019-02-12T00:54:43.066Z,12.20
2019-02-12T00:57:11.583Z,16.13
2019-02-12T00:59:40.150Z,14.07
2019-02-12T01:02:08.736Z,17.93
2019-02-12T01:04:37.310Z,19.03
2019-02-12T01:07:05.954Z,12.80
2019-02-12T01:09:34.481Z,12.03
2019-02-12T01:12:03.216Z,12.57
2019-02-12T01:14:31.697Z,15.90
2019-02-12T01:17:00.917Z,15.77
2019-02-12T01:19:29.449Z,17.50
2019-02-12T01:21:58.694Z,9.03
2019-02-12T01:24:27.253Z,13.67
2019-02-12T01:26:55.833Z,17.20
2019-02-12T01:29:24.402Z,15.60
2019-02-12T01:31:54.425Z,14.30
2019-02-12T01:34:23.179Z,15.50
2019-02-12T01:36:51.727Z,9.77
2019-02-12T01:39:20.282Z,8.30
2019-02-12T01:41:48.855Z,10.03
2019-02-12T01:44:17.492Z,11.03
2019-02-12T01:46:46.167Z,11.87
2019-02-12T01:49:14.747Z,16.53
2019-02-12T01:51:43.313Z,11.67
2019-02-12T01:54:11.821Z,17.77
2019-02-12T01:56:40.382Z,13.67
2019-02-12T01:59:10.690Z,13.03
2019-02-12T02:01:39.254Z,18.50
2019-02-12T02:04:07.835Z,15.93
2019-02-12T02:06:36.331Z,14.70
2019-02-12T02:09:07.356Z,19.87
2019-02-12T02:11:35.913Z,14.77
2019-02-12T02:14:04.569Z,19.53
2019-02-12T02:16:33.125Z,21.20
2019-02-12T02:19:01.638Z,16.27
2019-02-12T02:21:30.274Z,9.93
2019-02-12T02:23:58.862Z,12.73
2019-02-12T02:26:27.421Z,15.87
2019-02-12T02:28:55.931Z,12.53
2019-02-12T02:31:24.496Z,7.57
2019-02-12T02:33:53.094Z,17.40
2019-02-12T02:36:21.653Z,14.13
2019-02-12T02:38:50.233Z,8.10
2019-02-12T02:41:18.729Z,16.37
2019-02-12T02:43:47.311Z,15.23
2019-02-12T02:46:15.870Z,21.47
2019-02-12T02:48:44.463Z,12.80
2019-02-12T02:51:13.028Z,12.30
2019-02-12T02:53:41.603Z,9.77
2019-02-12T02:56:10.090Z,13.57
2019-02-12T02:58:38.676Z,12.87
2019-02-12T03:01:07.236Z,15.33
2019-02-12T03:03:35.825Z,17.20
2019-02-12T03:06:04.882Z,11.78
2019-02-12T03:08:33.471Z,15.73
2019-02-12T03:11:02.094Z,9.03
2019-02-12T03:13:30.604Z,13.73
2019-02-12T03:15:59.161Z,12.53
2019-02-12T03:18:27.666Z,11.53
2019-02-12T03:20:56.232Z,11.17
2019-02-12T03:23:24.809Z,11.53
2019-02-12T03:25:53.372Z,11.27
2019-02-12T03:28:21.961Z,13.23
2019-02-12T03:30:50.522Z,10.50
2019-02-12T03:33:19.107Z,11.53
2019-02-12T03:35:47.660Z,11.90
2019-02-12T03:38:16.219Z,9.93
2019-02-12T03:40:44.806Z,13.00
2019-02-12T03:43:13.360Z,9.77
2019-02-12T03:45:41.943Z,14.20
2019-02-12T03:48:10.576Z,12.40
2019-02-12T03:50:39.157Z,13.60
2019-02-12T03:53:07.735Z,9.80
2019-02-12T03:55:36.316Z,14.40
2019-02-12T03:58:04.882Z,12.93
2019-02-12T04:00:33.462Z,8.97
2019-02-12T04:03:03.866Z,15.43
2019-02-12T04:05:32.995Z,19.60
2019-02-12T04:08:01.776Z,15.33
2019-02-12T04:10:30.371Z,16.23
2019-02-12T04:12:59.081Z,14.83
2019-02-12T04:15:27.739Z,13.10
2019-02-12T04:17:56.367Z,9.47
2019-02-12T04:20:24.949Z,10.20
2019-02-12T04:22:53.521Z,18.23
2019-02-12T04:25:22.102Z,17.20
2019-02-12T04:27:50.666Z,11.20
2019-02-12T04:30:19.250Z,16.30
2019-02-12T04:32:47.882Z,13.00
2019-02-12T04:35:16.467Z,10.10
2019-02-12T04:37:45.097Z,19.17
2019-02-12T04:40:13.748Z,14.80
2019-02-12T04:42:42.314Z,10.87
2019-02-12T04:45:11.646Z,19.20
2019-02-12T04:47:40.213Z,18.00
2019-02-12T04:50:11.842Z,15.00
2019-02-12T04:52:40.409Z,15.83
2019-02-12T04:55:11.085Z,9.50
2019-02-12T04:57:39.673Z,16.83
2019-02-12T05:00:14.170Z,12.20
2019-02-12T05:02:42.736Z,11.20
2019-02-12T05:05:11.447Z,12.43
2019-02-12T05:07:40.077Z,11.97
2019-02-12T05:10:14.364Z,17.13
2019-02-12T05:12:42.962Z,18.60
2019-02-12T05:15:11.589Z,17.77
2019-02-12T05:17:40.146Z,11.50
2019-02-12T05:20:11.458Z,15.47
2019-02-12T05:22:43.696Z,11.47
2019-02-12T05:25:10.593Z,15.13
2019-02-12T05:27:39.158Z,12.93
2019-02-12T05:30:10.896Z,11.60
2019-02-12T05:32:39.461Z,17.27
2019-02-12T05:35:08.290Z,13.07
2019-02-12T05:37:36.927Z,19.47
2019-02-12T05:40:08.162Z,14.77
2019-02-12T05:42:36.729Z,19.53
2019-02-12T05:45:08.392Z,14.87
2019-02-12T05:47:36.946Z,14.87
2019-02-12T05:50:08.921Z,12.57
2019-02-12T05:52:37.448Z,16.07
2019-02-12T05:55:06.632Z,14.53
2019-02-12T05:57:35.202Z,15.73
2019-02-12T06:00:05.835Z,14.97
2019-02-12T06:02:34.848Z,19.43
2019-02-12T06:05:03.911Z,16.17
2019-02-12T06:07:32.461Z,14.33
2019-02-12T06:10:00.960Z,14.60
2019-02-12T06:12:29.572Z,17.47
2019-02-12T06:14:58.090Z,19.13
2019-02-12T06:17:26.630Z,16.90
2019-02-12T06:19:55.152Z,14.93
2019-02-12T06:22:23.729Z,16.83
2019-02-12T06:24:52.229Z,16.33
2019-02-12T06:27:20.820Z,14.43
2019-02-12T06:29:49.379Z,16.93
2019-02-12T06:32:17.966Z,17.07
2019-02-12T06:34:46.534Z,21.70
2019-02-12T06:37:15.146Z,15.27
2019-02-12T06:39:44.168Z,17.27
2019-02-12T06:42:12.735Z,23.30
2019-02-12T06:44:41.294Z,23.07
2019-02-12T06:47:09.871Z,15.70
2019-02-12T06:49:38.428Z,11.80
2019-02-12T06:52:07.122Z,15.30
2019-02-12T06:54:35.670Z,16.37
2019-02-12T06:57:04.250Z,18.90
2019-02-12T06:59:32.850Z,17.03
2019-02-12T07:02:20.510Z,14.07
2019-02-12T07:04:49.073Z,12.17
2019-02-12T07:07:23.672Z,14.60
2019-02-12T07:09:52.309Z,14.17
2019-02-12T07:12:38.566Z,12.33
2019-02-12T07:15:10.212Z,14.73
2019-02-12T07:17:59.661Z,17.83
2019-02-12T07:20:39.909Z,15.80
2019-02-12T07:23:26.324Z,16.77
2019-02-12T07:25:58.413Z,18.77
2019-02-12T07:28:52.391Z,17.07
2019-02-12T07:31:56.774Z,10.37
2019-02-12T07:34:44.854Z,15.73
2019-02-12T07:37:19.105Z,17.57
2019-02-12T07:39:56.675Z,14.37
2019-02-12T07:42:37.116Z,14.37
2019-02-12T07:45:41.436Z,16.97
2019-02-12T07:48:21.553Z,15.47
2019-02-12T07:51:07.959Z,15.67
2019-02-12T07:53:45.167Z,14.10
2019-02-12T07:56:31.229Z,13.43
2019-02-12T07:59:05.468Z,19.47
2019-02-12T08:01:48.015Z,17.27
2019-02-12T08:04:37.628Z,16.80
2019-02-12T08:07:20.950Z,15.93
2019-02-12T08:10:18.072Z,17.20
2019-02-12T08:13:01.363Z,13.73
2019-02-12T08:15:50.909Z,15.47
2019-02-12T08:18:52.526Z,13.67
2019-02-12T08:21:26.876Z,17.57
2019-02-12T08:24:13.237Z,14.73
2019-02-12T08:26:59.660Z,15.80
2019-02-12T08:29:49.207Z,15.07
2019-02-12T08:32:26.835Z,21.43
2019-02-12T08:35:01.068Z,14.87
2019-02-12T08:37:35.401Z,13.43
2019-02-12T08:40:15.515Z,18.80
2019-02-12T08:42:49.710Z,15.27
2019-02-12T08:45:33.155Z,13.63
2019-02-12T08:48:22.486Z,12.17
2019-02-12T08:51:06.059Z,13.07
2019-02-12T08:53:50.583Z,23.00
2019-02-12T08:56:37.110Z,20.97
2019-02-12T08:59:11.685Z,16.53
2019-02-12T09:01:49.011Z,12.30
2019-02-12T09:04:32.586Z,23.27
2019-02-12T09:07:15.795Z,13.60
2019-02-12T09:10:06.787Z,13.27
2019-02-12T09:13:05.165Z,17.23
2019-02-12T09:16:02.197Z,13.33
2019-02-12T09:18:57.626Z,13.70
2019-02-12T09:21:48.224Z,17.40
2019-02-12T09:24:25.398Z,15.30
2019-02-12T09:27:02.478Z,17.90
2019-02-12T09:29:39.790Z,18.87
2019-02-12T09:32:30.893Z,13.43
2019-02-12T09:35:14.277Z,16.23
2019-02-12T09:37:57.554Z,11.20
2019-02-12T09:40:44.001Z,8.80
2019-02-12T09:43:33.617Z,17.03
2019-02-12T09:46:10.438Z,13.17
2019-02-12T09:48:45.037Z,13.77
2019-02-12T09:51:22.605Z,17.70
2019-02-12T09:54:09.159Z,16.67
2019-02-12T09:56:40.770Z,15.87
2019-02-12T09:59:15.063Z,12.53
2019-02-12T10:02:01.365Z,14.37
2019-02-12T10:04:48.057Z,14.28
2019-02-12T10:07:28.432Z,12.30
2019-02-12T10:10:19.604Z,11.90
2019-02-12T10:12:53.798Z,13.00
2019-02-12T10:15:30.993Z,15.87
2019-02-12T10:18:20.491Z,29.40
2019-02-12T10:21:01.112Z,16.80
2019-02-12T10:23:44.721Z,14.30
2019-02-12T10:26:16.325Z,12.17
2019-02-12T10:29:14.926Z,15.60
2019-02-12T10:31:43.346Z,11.70
2019-02-12T10:34:12.165Z,18.77
2019-02-12T10:36:40.899Z,16.53
2019-02-12T10:39:10.622Z,14.27
2019-02-12T10:41:39.186Z,14.57
2019-02-12T10:44:07.770Z,16.10
2019-02-12T10:46:36.331Z,19.50
2019-02-12T10:49:04.991Z,13.53
2019-02-12T10:51:33.550Z,13.70
2019-02-12T10:54:02.060Z,17.10
2019-02-12T10:56:30.561Z,14.70
2019-02-12T10:58:59.140Z,18.57
2019-02-12T11:01:27.704Z,12.97
2019-02-12T11:03:56.286Z,12.73
2019-02-12T11:06:26.393Z,14.50
2019-02-12T11:08:54.971Z,14.80
2019-02-12T11:11:23.602Z,14.27
2019-02-12T11:13:52.162Z,16.47
2019-02-12T11:16:20.809Z,23.30
2019-02-12T11:18:49.525Z,17.07
2019-02-12T11:21:18.175Z,16.97
2019-02-12T11:23:46.739Z,11.90
2019-02-12T11:26:15.321Z,13.97
2019-02-12T11:28:43.881Z,14.03
2019-02-12T11:31:12.471Z,22.30
2019-02-12T11:33:41.033Z,22.20
2019-02-12T11:36:09.624Z,17.77
2019-02-12T11:38:38.183Z,15.40
2019-02-12T11:41:06.767Z,15.93
2019-02-12T11:43:35.326Z,19.53
2019-02-12T11:46:04.006Z,14.20
2019-02-12T11:48:32.574Z,18.37
2019-02-12T11:51:01.158Z,12.13
2019-02-12T11:53:29.714Z,16.57
2019-02-12T11:55:58.298Z,23.90
2019-02-12T11:58:26.863Z,16.50
2019-02-12T12:00:57.089Z,14.77
2019-02-12T12:03:25.661Z,19.23
2019-02-12T12:05:54.177Z,12.53
2019-02-12T12:08:22.729Z,20.97
2019-02-12T12:10:51.238Z,17.77
2019-02-12T12:13:19.730Z,18.20
2019-02-12T12:15:48.310Z,16.97
2019-02-12T12:18:16.875Z,19.33
2019-02-12T12:20:45.715Z,18.93
2019-02-12T12:23:14.283Z,19.57
2019-02-12T12:25:42.878Z,26.60
2019-02-12T12:28:11.384Z,20.10
2019-02-12T12:30:39.986Z,18.00
2019-02-12T12:33:08.539Z,14.90
2019-02-12T12:35:37.122Z,14.50
2019-02-12T12:38:05.758Z,15.40
2019-02-12T12:40:34.343Z,20.47
2019-02-12T12:43:02.909Z,18.07
2019-02-12T12:45:31.479Z,19.97
2019-02-12T12:48:00.072Z,16.53
2019-02-12T12:50:30.160Z,15.70
2019-02-12T12:52:58.809Z,18.83
2019-02-12T12:55:27.371Z,15.27
2019-02-12T12:57:57.260Z,14.97
2019-02-12T13:00:26.060Z,15.30
2019-02-12T13:02:54.661Z,15.47
2019-02-12T13:05:23.215Z,13.00
2019-02-12T13:07:51.801Z,16.47
2019-02-12T13:10:20.446Z,17.93
2019-02-12T13:12:48.949Z,13.03
2019-02-12T13:15:17.449Z,15.17
2019-02-12T13:17:46.028Z,12.80
2019-02-12T13:20:18.943Z,13.53
2019-02-12T13:22:47.698Z,14.40
2019-02-12T13:25:16.269Z,12.40
2019-02-12T13:27:44.865Z,12.17
2019-02-12T13:30:22.246Z,12.93
2019-02-12T13:32:50.842Z,15.47
2019-02-12T13:35:19.424Z,10.17
2019-02-12T13:37:48.002Z,15.30
2019-02-12T13:40:16.565Z,12.23
2019-02-12T13:42:45.142Z,14.20
2019-02-12T13:45:15.172Z,13.17
2019-02-12T13:47:43.819Z,11.23
2019-02-12T13:50:13.133Z,11.63
2019-02-12T13:52:41.789Z,14.63
2019-02-12T13:55:16.978Z,15.33
2019-02-12T13:57:41.727Z,11.53
2019-02-12T14:00:15.651Z,22.03
2019-02-12T14:02:44.246Z,13.47
2019-02-12T14:05:23.485Z,15.43
2019-02-12T14:07:52.057Z,15.67
2019-02-12T14:10:20.621Z,11.90
2019-02-12T14:12:49.125Z,10.87
2019-02-12T14:15:17.622Z,15.33
2019-02-12T14:17:46.208Z,13.10
2019-02-12T14:20:18.061Z,13.70
2019-02-12T14:22:46.576Z,17.37
2019-02-12T14:25:15.974Z,13.97
2019-02-12T14:27:44.555Z,14.03
2019-02-12T14:30:17.502Z,21.20
2019-02-12T14:32:46.076Z,15.90
2019-02-12T14:35:14.693Z,18.17
2019-02-12T14:37:43.249Z,17.80
2019-02-12T14:40:15.493Z,19.60
2019-02-12T14:42:44.158Z,10.93
2019-02-12T14:45:18.411Z,11.63
2019-02-12T14:47:47.065Z,19.00
2019-02-12T14:50:17.556Z,15.33
2019-02-12T14:52:46.138Z,13.87
2019-02-12T14:55:14.776Z,18.63
2019-02-12T14:57:43.359Z,18.27
2019-02-12T15:00:14.594Z,17.63
2019-02-12T15:02:43.177Z,20.00
2019-02-12T15:05:11.818Z,19.67
2019-02-12T15:07:40.399Z,19.07
2019-02-12T15:10:16.057Z,15.77
2019-02-12T15:12:44.707Z,16.03
2019-02-12T15:15:13.658Z,14.50
2019-02-12T15:17:42.229Z,17.50
2019-02-12T15:20:14.244Z,18.20
2019-02-12T15:22:42.906Z,19.57
2019-02-12T15:25:12.309Z,13.80
2019-02-12T15:27:40.955Z,18.87
2019-02-12T15:30:12.739Z,15.83
2019-02-12T15:32:41.307Z,18.77
2019-02-12T15:35:10.941Z,16.87
2019-02-12T15:37:39.571Z,18.80
2019-02-12T15:40:10.805Z,20.00
2019-02-12T15:42:39.373Z,17.33
2019-02-12T15:45:10.857Z,16.90
2019-02-12T15:47:39.423Z,20.40
2019-02-12T15:50:10.350Z,21.47
2019-02-12T15:52:38.989Z,17.30
2019-02-12T15:55:12.739Z,20.00
2019-02-12T15:57:45.168Z,20.80
2019-02-12T16:00:19.802Z,16.57
2019-02-12T16:02:47.784Z,20.53
2019-02-12T16:05:16.308Z,22.73
2019-02-12T16:07:47.076Z,20.83
2019-02-12T16:10:19.653Z,17.37
2019-02-12T16:12:50.698Z,15.13
2019-02-12T16:15:21.856Z,18.43
2019-02-12T16:17:49.671Z,19.33
2019-02-12T16:20:19.732Z,16.57
2019-02-12T16:22:48.295Z,16.83
2019-02-12T16:25:16.957Z,16.23
2019-02-12T16:27:45.518Z,15.43
2019-02-12T16:30:18.999Z,19.57
2019-02-12T16:32:47.639Z,19.37
2019-02-12T16:35:18.301Z,19.03
2019-02-12T16:37:46.949Z,19.83
2019-02-12T16:40:17.587Z,19.63
2019-02-12T16:42:46.226Z,20.40
2019-02-12T16:45:23.545Z,20.27
2019-02-12T16:47:52.102Z,21.73
2019-02-12T16:50:21.952Z,25.73
2019-02-12T16:52:50.564Z,21.20
2019-02-12T16:55:19.153Z,27.43
2019-02-12T16:57:47.732Z,22.30
2019-02-12T17:00:17.645Z,24.90
2019-02-12T17:02:46.708Z,19.90
2019-02-12T17:05:15.931Z,21.57
2019-02-12T17:07:45.435Z,27.30
2019-02-12T17:10:14.756Z,22.20
2019-02-12T17:12:43.392Z,25.17
2019-02-12T17:15:13.336Z,24.87
2019-02-12T17:17:42.017Z,21.60
2019-02-12T17:20:16.300Z,22.70
2019-02-12T17:22:44.860Z,26.67
2019-02-12T17:25:13.709Z,39.87
2019-02-12T17:27:42.274Z,36.03
2019-02-12T17:30:15.642Z,30.40
2019-02-12T17:32:46.581Z,29.70
2019-02-12T17:35:15.274Z,22.63
2019-02-12T17:37:43.919Z,23.97
2019-02-12T17:40:15.243Z,24.93
2019-02-12T17:42:43.812Z,19.93
2019-02-12T17:45:16.279Z,21.83
2019-02-12T17:47:44.846Z,27.07
2019-02-12T17:50:14.473Z,26.17
2019-02-12T17:52:43.030Z,24.50
2019-02-12T17:55:11.883Z,24.00
2019-02-12T17:57:40.451Z,22.77
2019-02-12T18:00:16.181Z,22.40
2019-02-12T18:02:44.749Z,20.77
2019-02-12T18:05:13.404Z,19.77
2019-02-12T18:07:41.969Z,22.10
2019-02-12T18:10:11.618Z,19.87
2019-02-12T18:12:40.184Z,23.07
2019-02-12T18:15:11.583Z,26.13
2019-02-12T18:17:40.151Z,23.93
2019-02-12T18:20:14.008Z,23.80
2019-02-12T18:22:42.563Z,20.97
2019-02-12T18:25:12.159Z,21.87
2019-02-12T18:27:42.168Z,23.50
2019-02-12T18:30:15.026Z,26.50
2019-02-12T18:32:43.670Z,22.83
2019-02-12T18:35:12.233Z,23.97
2019-02-12T18:37:40.747Z,23.83
2019-02-12T18:40:11.572Z,25.43
2019-02-12T18:42:40.144Z,22.23
2019-02-12T18:45:14.425Z,27.70
2019-02-12T18:47:43.022Z,28.03
2019-02-12T18:50:12.323Z,30.50
2019-02-12T18:52:40.898Z,25.67
2019-02-12T18:55:14.339Z,24.40
2019-02-12T18:57:42.895Z,24.80
2019-02-12T19:00:21.982Z,24.67
2019-02-12T19:02:50.578Z,25.60
2019-02-12T19:05:19.212Z,24.80
2019-02-12T19:07:47.721Z,28.77
2019-02-12T19:10:18.023Z,27.07
2019-02-12T19:12:46.536Z,29.03
2019-02-12T19:15:22.185Z,28.60
2019-02-12T19:17:59.897Z,29.93
2019-02-12T19:20:28.478Z,32.00
2019-02-12T19:22:57.069Z,32.07
2019-02-12T19:25:25.649Z,27.13
2019-02-12T19:27:54.229Z,29.37
2019-02-12T19:30:22.790Z,27.57
2019-02-12T19:32:51.339Z,27.90
2019-02-12T19:35:19.880Z,29.70
2019-02-12T19:37:48.396Z,30.90
2019-02-12T19:40:16.898Z,29.30
2019-02-12T19:42:45.482Z,28.87
2019-02-12T19:45:15.594Z,25.83
2019-02-12T19:47:44.189Z,31.67
2019-02-12T19:50:13.093Z,27.17
2019-02-12T19:52:41.691Z,27.77
2019-02-12T19:55:10.801Z,33.50
2019-02-12T19:57:39.379Z,33.07
2019-02-12T20:00:14.954Z,30.43
2019-02-12T20:02:43.535Z,34.60
2019-02-12T20:05:12.502Z,32.70
2019-02-12T20:07:41.090Z,33.57
2019-02-12T20:10:10.989Z,34.07
2019-02-12T20:12:39.569Z,28.47
2019-02-12T20:15:13.157Z,31.30
2019-02-12T20:17:41.741Z,28.50
2019-02-12T20:20:11.882Z,29.17
2019-02-12T20:22:40.457Z,31.70
2019-02-12T20:25:12.108Z,33.13
2019-02-12T20:27:40.684Z,29.23
2019-02-12T20:30:12.261Z,31.37
2019-02-12T20:32:40.821Z,34.80
2019-02-12T20:35:13.161Z,25.83
2019-02-12T20:37:42.942Z,28.90
2019-02-12T20:40:13.165Z,30.77
2019-02-12T20:42:42.481Z,33.57
2019-02-12T20:45:14.632Z,31.43
2019-02-12T20:47:43.165Z,26.60
2019-02-12T20:50:23.701Z,31.97
2019-02-12T20:52:53.358Z,31.50
2019-02-12T20:55:23.620Z,26.47
2019-02-12T20:57:53.102Z,28.27
2019-02-12T21:00:26.469Z,28.10
2019-02-12T21:02:55.028Z,29.60
2019-02-12T21:05:23.610Z,30.53
2019-02-12T21:07:52.111Z,27.40
2019-02-12T21:10:21.938Z,29.77
2019-02-12T21:12:50.511Z,31.53
2019-02-12T21:15:21.552Z,32.87
2019-02-12T21:17:50.191Z,28.10
2019-02-12T21:20:18.938Z,29.43
2019-02-12T21:22:47.506Z,27.87
2019-02-12T21:25:16.156Z,30.20
2019-02-12T21:27:44.718Z,26.57
2019-02-12T21:30:21.970Z,25.13
2019-02-12T21:32:50.733Z,27.87
2019-02-12T21:35:19.345Z,29.57
2019-02-12T21:37:47.879Z,28.90
2019-02-12T21:40:21.903Z,25.37
2019-02-12T21:42:50.550Z,29.70
2019-02-12T21:45:19.198Z,25.57
2019-02-12T21:47:47.833Z,23.07
2019-02-12T21:50:16.416Z,27.20
2019-02-12T21:52:44.998Z,29.73
2019-02-12T21:55:21.046Z,28.13
2019-02-12T21:57:49.615Z,29.33
2019-02-12T22:00:19.678Z,24.93
2019-02-12T22:02:48.313Z,29.13
2019-02-12T22:05:17.334Z,25.27
2019-02-12T22:07:45.915Z,22.97
2019-02-12T22:10:25.310Z,24.43
2019-02-12T22:12:53.884Z,22.03
2019-02-12T22:15:22.464Z,24.73
2019-02-12T22:17:51.198Z,22.60
2019-02-12T22:20:21.136Z,24.10
2019-02-12T22:22:49.627Z,26.70
2019-02-12T22:25:18.356Z,27.03
2019-02-12T22:27:46.917Z,25.27
2019-02-12T22:30:18.210Z,27.10
2019-02-12T22:32:46.849Z,32.10
2019-02-12T22:35:15.599Z,27.23
2019-02-12T22:37:44.302Z,24.47
2019-02-12T22:40:14.650Z,28.50
2019-02-12T22:42:43.223Z,25.03
2019-02-12T22:45:14.611Z,24.40
2019-02-12T22:47:43.246Z,29.67
2019-02-12T22:50:12.707Z,26.90
2019-02-12T22:52:41.541Z,25.90
2019-02-12T22:55:11.051Z,26.83
2019-02-12T22:57:39.709Z,30.63
2019-02-12T23:00:33.718Z,27.43
2019-02-12T23:03:02.349Z,31.27
2019-02-12T23:05:30.937Z,30.87
2019-02-12T23:07:59.571Z,29.30
2019-02-12T23:10:28.211Z,27.00
2019-02-12T23:12:56.738Z,34.17
2019-02-12T23:15:25.308Z,29.83
2019-02-12T23:17:53.890Z,27.37
2019-02-12T23:20:22.462Z,28.53
2019-02-12T23:22:51.046Z,27.30
2019-02-12T23:25:19.615Z,29.40
2019-02-12T23:27:48.202Z,29.43
2019-02-12T23:30:16.796Z,28.47
2019-02-12T23:32:45.428Z,26.37
2019-02-12T23:35:14.405Z,27.10
2019-02-12T23:37:42.923Z,26.43
2019-02-12T23:40:11.483Z,25.47
2019-02-12T23:42:40.065Z,29.03
2019-02-12T23:45:09.965Z,28.97
2019-02-12T23:47:38.569Z,27.00
2019-02-12T23:50:08.270Z,26.07
2019-02-12T23:52:36.773Z,28.87
2019-02-12T23:55:06.474Z,28.93
2019-02-12T23:57:35.069Z,30.20
